KSKF/SKF METAR and TAF weather

Enter ICAO airport designator
Station Type Date Time Source
KSKF METAR 2021/07/26 15:56 UTC NOAA

KSKF 261556Z 23003KT 10SM SCT200 29/22 A3000 RMK AO2A SLP151 T02940223 $


Station Type Date Time Source
KSKF Decoded METAR 2021/07/26 15:56 UTC NOAA

Kelly Air Force Base, TX, United States (KSKF) 29-23N 098-35W
Jul 26, 2021 - 11:56 AM EDT / 2021.07.26 1556 UTC
Wind: from the SW (230 degrees) at 3 MPH (3 KT):0
Visibility: 10 mile(s):0
Sky conditions: partly cloudy
Temperature: 84.9 F (29.4 C)
Dew Point: 72.1 F (22.3 C)
Relative Humidity: 65%
Pressure (altimeter): 30 in. Hg (1015 hPa)
ob: KSKF 261556Z 23003KT 10SM SCT200 29/22 A3000 RMK AO2A SLP151 T02940223
cycle: 16

Station Type Date Time Source
KSKF TAF 2021/07/26 10:05 UTC NOAA

TAF KSKF 261000Z 2610/2716 18005KT 9999 BKN007 QNH2992INS
TEMPO 2610/2615 SCT006 BKN012
BECMG 2614/2615 16010KT 9999 FEW250 QNH2988INS
BECMG 2705/2706 16006KT 9999 BKN012 QNH2990INS TX37/2621Z TN24/2612Z

Example: see airport list